sensor_id;sensor_type;location;lat;lon;timestamp;pressure;altitude;pressure_sealevel;temperature;humidity
31357;BME280;60001;48.404;11.738;2023-02-02T00:00:01;96636.25;;;5.00;68.13
31357;BME280;60001;48.404;11.738;2023-02-02T00:01:34;96625.38;;;5.03;67.53
31357;BME280;60001;48.404;11.738;2023-02-02T00:03:06;96627.34;;;5.07;68.09
31357;BME280;60001;48.404;11.738;2023-02-02T00:04:38;96626.00;;;4.91;67.41
31357;BME280;60001;48.404;11.738;2023-02-02T00:06:10;96624.34;;;5.04;67.10
31357;BME280;60001;48.404;11.738;2023-02-02T00:07:42;96629.81;;;5.02;67.44
31357;BME280;60001;48.404;11.738;2023-02-02T00:09:16;96636.47;;;4.91;67.72
31357;BME280;60001;48.404;11.738;2023-02-02T00:10:48;96642.50;;;4.99;68.13
31357;BME280;60001;48.404;11.738;2023-02-02T00:12:19;96632.25;;;4.97;68.58
31357;BME280;60001;48.404;11.738;2023-02-02T00:13:51;96634.63;;;4.99;68.71
31357;BME280;60001;48.404;11.738;2023-02-02T00:15:23;96640.56;;;4.81;68.77
31357;BME280;60001;48.404;11.738;2023-02-02T00:16:56;96630.44;;;4.91;68.88
31357;BME280;60001;48.404;11.738;2023-02-02T00:18:28;96630.84;;;4.94;68.66
31357;BME280;60001;48.404;11.738;2023-02-02T00:19:59;96617.34;;;4.98;68.07
31357;BME280;60001;48.404;11.738;2023-02-02T00:21:31;96619.97;;;4.98;68.19
31357;BME280;60001;48.404;11.738;2023-02-02T00:23:02;96613.91;;;4.97;68.00
31357;BME280;60001;48.404;11.738;2023-02-02T00:24:35;96613.31;;;5.02;67.95
31357;BME280;60001;48.404;11.738;2023-02-02T00:26:07;96619.13;;;5.04;67.88
31357;BME280;60001;48.404;11.738;2023-02-02T00:27:38;96609.25;;;5.06;67.83
31357;BME280;60001;48.404;11.738;2023-02-02T00:29:14;96607.06;;;5.03;67.73
31357;BME280;60001;48.404;11.738;2023-02-02T00:30:45;96600.00;;;5.03;67.38
31357;BME280;60001;48.404;11.738;2023-02-02T00:32:19;96598.56;;;5.07;67.63
31357;BME280;60001;48.404;11.738;2023-02-02T00:33:51;96589.31;;;5.05;67.53
31357;BME280;60001;48.404;11.738;2023-02-02T00:35:22;96591.56;;;5.01;67.60
31357;BME280;60001;48.404;11.738;2023-02-02T00:36:54;96586.91;;;5.03;67.50
31357;BME280;60001;48.404;11.738;2023-02-02T00:38:26;96590.41;;;4.90;67.64
31357;BME280;60001;48.404;11.738;2023-02-02T00:39:57;96597.00;;;4.93;68.09
31357;BME280;60001;48.404;11.738;2023-02-02T00:41:29;96590.94;;;4.99;67.81
31357;BME280;60001;48.404;11.738;2023-02-02T00:43:01;96602.03;;;5.01;68.11
31357;BME280;60001;48.404;11.738;2023-02-02T00:44:32;96583.31;;;4.98;68.45
31357;BME280;60001;48.404;11.738;2023-02-02T00:46:22;96590.16;;;4.99;67.54
31357;BME280;60001;48.404;11.738;2023-02-02T00:47:54;96593.16;;;5.02;67.95
31357;BME280;60001;48.404;11.738;2023-02-02T00:49:26;96589.13;;;5.00;67.78
31357;BME280;60001;48.404;11.738;2023-02-02T00:50:56;96585.50;;;5.01;67.38
31357;BME280;60001;48.404;11.738;2023-02-02T00:52:29;96584.88;;;5.05;67.35
31357;BME280;60001;48.404;11.738;2023-02-02T00:54:00;96585.69;;;5.06;67.58
31357;BME280;60001;48.404;11.738;2023-02-02T00:55:32;96588.34;;;4.99;67.43
31357;BME280;60001;48.404;11.738;2023-02-02T00:57:03;96589.00;;;4.88;67.39
31357;BME280;60001;48.404;11.738;2023-02-02T00:58:34;96580.00;;;4.77;68.05
31357;BME280;60001;48.404;11.738;2023-02-02T01:00:09;96593.03;;;4.84;68.25
31357;BME280;60001;48.404;11.738;2023-02-02T01:01:42;96583.78;;;4.88;68.38
31357;BME280;60001;48.404;11.738;2023-02-02T01:03:15;96590.03;;;4.87;68.30
31357;BME280;60001;48.404;11.738;2023-02-02T01:04:46;96586.78;;;4.91;68.41
31357;BME280;60001;48.404;11.738;2023-02-02T01:06:19;96591.59;;;4.94;68.58
31357;BME280;60001;48.404;11.738;2023-02-02T01:07:50;96585.72;;;4.99;68.39
31357;BME280;60001;48.404;11.738;2023-02-02T01:09:21;96580.53;;;4.86;68.29
31357;BME280;60001;48.404;11.738;2023-02-02T01:10:53;96570.03;;;4.99;68.27
31357;BME280;60001;48.404;11.738;2023-02-02T01:12:25;96584.69;;;5.00;68.34
31357;BME280;60001;48.404;11.738;2023-02-02T01:13:57;96584.56;;;4.95;68.73
31357;BME280;60001;48.404;11.738;2023-02-02T01:15:27;96582.19;;;4.87;69.07
31357;BME280;60001;48.404;11.738;2023-02-02T01:17:00;96584.78;;;4.87;68.49
31357;BME280;60001;48.404;11.738;2023-02-02T01:18:33;96581.56;;;4.85;68.82
31357;BME280;60001;48.404;11.738;2023-02-02T01:20:07;96585.59;;;4.87;69.13
31357;BME280;60001;48.404;11.738;2023-02-02T01:21:39;96584.41;;;4.77;69.89
31357;BME280;60001;48.404;11.738;2023-02-02T01:23:10;96583.59;;;4.83;69.67
31357;BME280;60001;48.404;11.738;2023-02-02T01:24:42;96567.91;;;4.83;70.19
31357;BME280;60001;48.404;11.738;2023-02-02T01:26:15;96569.16;;;4.74;70.17
31357;BME280;60001;48.404;11.738;2023-02-02T01:27:47;96581.00;;;4.76;71.18
31357;BME280;60001;48.404;11.738;2023-02-02T01:29:17;96559.31;;;4.62;71.42
31357;BME280;60001;48.404;11.738;2023-02-02T01:30:50;96567.16;;;4.69;71.40
31357;BME280;60001;48.404;11.738;2023-02-02T01:32:21;96575.78;;;4.76;71.77
31357;BME280;60001;48.404;11.738;2023-02-02T01:33:54;96571.59;;;4.68;71.99
31357;BME280;60001;48.404;11.738;2023-02-02T01:35:48;96571.38;;;4.63;72.19
31357;BME280;60001;48.404;11.738;2023-02-02T01:37:21;96573.59;;;4.66;72.57
31357;BME280;60001;48.404;11.738;2023-02-02T01:38:52;96570.03;;;4.54;72.61
31357;BME280;60001;48.404;11.738;2023-02-02T01:40:23;96560.56;;;4.53;73.17
31357;BME280;60001;48.404;11.738;2023-02-02T01:41:55;96555.16;;;4.48;73.20
31357;BME280;60001;48.404;11.738;2023-02-02T01:43:29;96550.50;;;4.50;73.20
31357;BME280;60001;48.404;11.738;2023-02-02T01:45:12;96551.31;;;4.51;73.15
31357;BME280;60001;48.404;11.738;2023-02-02T01:46:46;96553.13;;;4.50;73.05
31357;BME280;60001;48.404;11.738;2023-02-02T01:48:20;96555.16;;;4.48;72.75
31357;BME280;60001;48.404;11.738;2023-02-02T01:49:54;96542.69;;;4.44;72.70
31357;BME280;60001;48.404;11.738;2023-02-02T01:51:32;96545.13;;;4.45;73.03
31357;BME280;60001;48.404;11.738;2023-02-02T01:53:06;96548.31;;;4.54;73.01
31357;BME280;60001;48.404;11.738;2023-02-02T01:54:45;96541.84;;;4.56;73.29
31357;BME280;60001;48.404;11.738;2023-02-02T01:56:24;96542.06;;;4.55;73.09
31357;BME280;60001;48.404;11.738;2023-02-02T01:58:02;96528.56;;;4.58;72.99
31357;BME280;60001;48.404;11.738;2023-02-02T01:59:36;96550.91;;;4.60;72.30
31357;BME280;60001;48.404;11.738;2023-02-02T02:01:08;96537.00;;;4.60;72.38
31357;BME280;60001;48.404;11.738;2023-02-02T02:02:45;96543.03;;;4.60;72.11
31357;BME280;60001;48.404;11.738;2023-02-02T02:04:20;96542.03;;;4.61;71.82
31357;BME280;60001;48.404;11.738;2023-02-02T02:05:58;96535.59;;;4.57;71.68
31357;BME280;60001;48.404;11.738;2023-02-02T02:07:31;96552.72;;;4.60;72.07
31357;BME280;60001;48.404;11.738;2023-02-02T02:09:05;96539.00;;;4.64;71.81
31357;BME280;60001;48.404;11.738;2023-02-02T02:10:37;96550.25;;;4.65;72.14
31357;BME280;60001;48.404;11.738;2023-02-02T02:12:10;96549.63;;;4.70;72.41
31357;BME280;60001;48.404;11.738;2023-02-02T02:13:44;96548.28;;;4.60;72.41
31357;BME280;60001;48.404;11.738;2023-02-02T02:15:40;96557.31;;;4.58;72.92
31357;BME280;60001;48.404;11.738;2023-02-02T02:17:44;96544.22;;;4.64;72.93
31357;BME280;60001;48.404;11.738;2023-02-02T02:21:57;96550.28;;;4.58;72.83
31357;BME280;60001;48.404;11.738;2023-02-02T02:24:26;96543.22;;;4.59;72.76
31357;BME280;60001;48.404;11.738;2023-02-02T02:26:55;96547.84;;;4.63;73.00
31357;BME280;60001;48.404;11.738;2023-02-02T02:28:54;96545.03;;;4.58;73.55
31357;BME280;60001;48.404;11.738;2023-02-02T02:30:40;96553.09;;;4.57;73.75
31357;BME280;60001;48.404;11.738;2023-02-02T02:32:26;96561.34;;;4.60;74.02
31357;BME280;60001;48.404;11.738;2023-02-02T02:34:08;96553.91;;;4.57;74.24
31357;BME280;60001;48.404;11.738;2023-02-02T02:35:54;96564.00;;;4.54;74.70
31357;BME280;60001;48.404;11.738;2023-02-02T02:37:38;96568.66;;;4.45;75.09
31357;BME280;60001;48.404;11.738;2023-02-02T02:39:19;96569.25;;;4.47;74.75
31357;BME280;60001;48.404;11.738;2023-02-02T02:40:55;96570.25;;;4.46;74.88
31357;BME280;60001;48.404;11.738;2023-02-02T02:42:34;96565.41;;;4.50;74.61
31357;BME280;60001;48.404;11.738;2023-02-02T02:44:11;96569.44;;;4.52;74.36
31357;BME280;60001;48.404;11.738;2023-02-02T02:45:45;96544.28;;;4.45;74.58
31357;BME280;60001;48.404;11.738;2023-02-02T02:47:18;96560.97;;;4.50;74.16
31357;BME280;60001;48.404;11.738;2023-02-02T02:48:52;96504.19;;;4.12;74.16
31357;BME280;60001;48.404;11.738;2023-02-02T02:50:27;96549.91;;;4.55;73.88
31357;BME280;60001;48.404;11.738;2023-02-02T02:51:58;96548.69;;;4.51;74.14
31357;BME280;60001;48.404;11.738;2023-02-02T02:53:31;96555.75;;;4.50;74.85
31357;BME280;60001;48.404;11.738;2023-02-02T02:55:06;96550.31;;;4.52;75.16
31357;BME280;60001;48.404;11.738;2023-02-02T02:57:05;96555.53;;;4.52;74.90
31357;BME280;60001;48.404;11.738;2023-02-02T02:58:48;96549.91;;;4.55;75.54
31357;BME280;60001;48.404;11.738;2023-02-02T03:00:35;96558.75;;;4.54;75.23
31357;BME280;60001;48.404;11.738;2023-02-02T03:02:26;96549.16;;;4.41;75.56
31357;BME280;60001;48.404;11.738;2023-02-02T03:04:09;96555.16;;;4.48;75.16
31357;BME280;60001;48.404;11.738;2023-02-02T03:05:51;96568.47;;;4.40;75.44
31357;BME280;60001;48.404;11.738;2023-02-02T03:07:31;96554.16;;;4.49;75.37
31357;BME280;60001;48.404;11.738;2023-02-02T03:09:09;96562.56;;;4.51;75.20
31357;BME280;60001;48.404;11.738;2023-02-02T03:10:46;96557.97;;;4.47;75.21
31357;BME280;60001;48.404;11.738;2023-02-02T03:12:18;96550.97;;;4.40;75.55
31357;BME280;60001;48.404;11.738;2023-02-02T03:13:50;96560.38;;;4.48;75.07
31357;BME280;60001;48.404;11.738;2023-02-02T03:15:24;96557.19;;;4.46;75.38
31357;BME280;60001;48.404;11.738;2023-02-02T03:16:55;96572.06;;;4.46;74.99
31357;BME280;60001;48.404;11.738;2023-02-02T03:18:29;96562.56;;;4.51;74.93
31357;BME280;60001;48.404;11.738;2023-02-02T03:20:02;96561.00;;;4.37;75.50
31357;BME280;60001;48.404;11.738;2023-02-02T03:21:34;96569.06;;;4.42;75.94
31357;BME280;60001;48.404;11.738;2023-02-02T03:23:05;96568.84;;;4.44;76.33
31357;BME280;60001;48.404;11.738;2023-02-02T03:24:37;96563.22;;;4.47;76.18
31357;BME280;60001;48.404;11.738;2023-02-02T03:26:08;96560.19;;;4.43;76.58
31357;BME280;60001;48.404;11.738;2023-02-02T03:27:41;96572.47;;;4.43;76.38
31357;BME280;60001;48.404;11.738;2023-02-02T03:29:13;96567.03;;;4.44;76.82
31357;BME280;60001;48.404;11.738;2023-02-02T03:30:47;96573.47;;;4.42;77.01
31357;BME280;60001;48.404;11.738;2023-02-02T03:32:19;96559.41;;;4.36;76.81
31357;BME280;60001;48.404;11.738;2023-02-02T03:33:51;96578.09;;;4.46;76.93
31357;BME280;60001;48.404;11.738;2023-02-02T03:35:24;96573.91;;;4.38;77.29
31357;BME280;60001;48.404;11.738;2023-02-02T03:36:56;96568.47;;;4.40;77.40
31357;BME280;60001;48.404;11.738;2023-02-02T03:38:28;96574.88;;;4.44;77.79
31357;BME280;60001;48.404;11.738;2023-02-02T03:39:59;96569.84;;;4.43;77.41
31357;BME280;60001;48.404;11.738;2023-02-02T03:41:31;96568.25;;;4.42;77.33
31357;BME280;60001;48.404;11.738;2023-02-02T03:43:03;96560.81;;;4.45;77.32
31357;BME280;60001;48.404;11.738;2023-02-02T03:44:34;96560.81;;;4.45;77.68
31357;BME280;60001;48.404;11.738;2023-02-02T03:46:06;96573.25;;;4.43;77.61
31357;BME280;60001;48.404;11.738;2023-02-02T03:47:38;96565.22;;;4.45;77.55
31357;BME280;60001;48.404;11.738;2023-02-02T03:49:09;96562.00;;;4.43;77.76
31357;BME280;60001;48.404;11.738;2023-02-02T03:50:42;96560.22;;;4.36;77.90
31357;BME280;60001;48.404;11.738;2023-02-02T03:52:14;96553.78;;;4.39;77.58
31357;BME280;60001;48.404;11.738;2023-02-02T03:53:46;96561.63;;;4.39;77.91
31357;BME280;60001;48.404;11.738;2023-02-02T03:55:18;96557.00;;;4.41;78.13
31357;BME280;60001;48.404;11.738;2023-02-02T03:56:48;96549.16;;;4.41;77.34
31357;BME280;60001;48.404;11.738;2023-02-02T03:58:20;96551.34;;;4.37;77.53
31357;BME280;60001;48.404;11.738;2023-02-02T03:59:52;96563.03;;;4.35;77.93
31357;BME280;60001;48.404;11.738;2023-02-02T04:01:27;96558.63;;;4.29;78.12
31357;BME280;60001;48.404;11.738;2023-02-02T04:02:59;96550.19;;;4.27;78.12
31357;BME280;60001;48.404;11.738;2023-02-02T04:04:31;96554.00;;;4.31;78.32
31357;BME280;60001;48.404;11.738;2023-02-02T04:06:04;96554.59;;;4.33;78.22
31357;BME280;60001;48.404;11.738;2023-02-02T04:07:36;96561.44;;;4.27;78.27
31357;BME280;60001;48.404;11.738;2023-02-02T04:09:08;96552.59;;;4.35;78.17
31357;BME280;60001;48.404;11.738;2023-02-02T04:10:39;96562.25;;;4.28;78.14
31357;BME280;60001;48.404;11.738;2023-02-02T04:12:12;96563.47;;;4.32;78.31
31357;BME280;60001;48.404;11.738;2023-02-02T04:13:43;96564.06;;;4.34;78.54
31357;BME280;60001;48.404;11.738;2023-02-02T04:15:15;96560.63;;;4.33;78.31
31357;BME280;60001;48.404;11.738;2023-02-02T04:16:47;96568.06;;;4.36;77.90
31357;BME280;60001;48.404;11.738;2023-02-02T04:18:19;96561.03;;;4.30;78.42
31357;BME280;60001;48.404;11.738;2023-02-02T04:19:49;96569.88;;;4.29;78.59
31357;BME280;60001;48.404;11.738;2023-02-02T04:21:27;96561.84;;;4.31;78.66
31357;BME280;60001;48.404;11.738;2023-02-02T04:22:59;96563.44;;;4.38;77.87
31357;BME280;60001;48.404;11.738;2023-02-02T04:24:30;96565.84;;;4.40;78.19
31357;BME280;60001;48.404;11.738;2023-02-02T04:26:02;96561.22;;;4.42;78.18
31357;BME280;60001;48.404;11.738;2023-02-02T04:27:34;96557.38;;;4.38;78.29
31357;BME280;60001;48.404;11.738;2023-02-02T04:29:06;96560.41;;;4.42;78.61
31357;BME280;60001;48.404;11.738;2023-02-02T04:30:38;96548.38;;;4.27;78.72
31357;BME280;60001;48.404;11.738;2023-02-02T04:32:09;96560.41;;;4.42;79.16
31357;BME280;60001;48.404;11.738;2023-02-02T04:33:41;96570.91;;;4.28;79.36
31357;BME280;60001;48.404;11.738;2023-02-02T04:35:11;96578.38;;;4.25;79.39
31357;BME280;60001;48.404;11.738;2023-02-02T04:36:44;96573.31;;;4.30;79.48
31357;BME280;60001;48.404;11.738;2023-02-02T04:38:17;96577.72;;;4.29;79.42
31357;BME280;60001;48.404;11.738;2023-02-02T04:39:48;96575.31;;;4.28;79.67
31357;BME280;60001;48.404;11.738;2023-02-02T04:41:21;96567.91;;;4.25;80.00
31357;BME280;60001;48.404;11.738;2023-02-02T04:42:53;96579.97;;;4.26;80.24
31357;BME280;60001;48.404;11.738;2023-02-02T04:44:25;96580.97;;;4.25;80.14
31357;BME280;60001;48.404;11.738;2023-02-02T04:45:57;96576.53;;;4.25;80.19
31357;BME280;60001;48.404;11.738;2023-02-02T04:47:29;96569.50;;;4.26;80.27
31357;BME280;60001;48.404;11.738;2023-02-02T04:49:01;96569.09;;;4.22;80.49
31357;BME280;60001;48.404;11.738;2023-02-02T04:50:33;96573.94;;;4.25;80.55
31357;BME280;60001;48.404;11.738;2023-02-02T04:52:06;96582.59;;;4.12;81.27
31357;BME280;60001;48.404;11.738;2023-02-02T04:53:37;96578.75;;;4.22;81.03
31357;BME280;60001;48.404;11.738;2023-02-02T04:55:10;96564.09;;;4.21;80.61
31357;BME280;60001;48.404;11.738;2023-02-02T04:56:41;96581.97;;;4.17;80.91
31357;BME280;60001;48.404;11.738;2023-02-02T04:58:13;96580.19;;;4.18;81.17
31357;BME280;60001;48.404;11.738;2023-02-02T04:59:45;96576.72;;;4.24;81.24
31357;BME280;60001;48.404;11.738;2023-02-02T05:01:18;96588.19;;;4.23;81.15
31357;BME280;60001;48.404;11.738;2023-02-02T05:02:51;96572.75;;;4.15;81.40
31357;BME280;60001;48.404;11.738;2023-02-02T05:04:22;96578.75;;;4.22;81.24
31357;BME280;60001;48.404;11.738;2023-02-02T05:06:00;96593.44;;;4.23;81.23
31357;BME280;60001;48.404;11.738;2023-02-02T05:07:33;96581.78;;;4.19;81.54
31357;BME280;60001;48.404;11.738;2023-02-02T05:09:05;96578.56;;;4.17;81.47
31357;BME280;60001;48.404;11.738;2023-02-02T05:10:39;96583.19;;;4.15;81.64
31357;BME280;60001;48.404;11.738;2023-02-02T05:12:11;96582.38;;;4.14;81.85
31357;BME280;60001;48.404;11.738;2023-02-02T05:13:45;96595.88;;;4.18;81.94
31357;BME280;60001;48.404;11.738;2023-02-02T05:15:16;96581.38;;;4.22;81.60
31357;BME280;60001;48.404;11.738;2023-02-02T05:16:50;96581.97;;;4.17;81.84
31357;BME280;60001;48.404;11.738;2023-02-02T05:18:23;96583.38;;;4.20;81.78
31357;BME280;60001;48.404;11.738;2023-02-02T05:20:00;96587.41;;;4.22;81.74
31357;BME280;60001;48.404;11.738;2023-02-02T05:21:32;96587.63;;;4.14;81.86
31357;BME280;60001;48.404;11.738;2023-02-02T05:23:05;96603.09;;;4.16;81.54
31357;BME280;60001;48.404;11.738;2023-02-02T05:24:36;96593.25;;;4.18;81.85
31357;BME280;60001;48.404;11.738;2023-02-02T05:26:11;96589.41;;;4.20;81.83
31357;BME280;60001;48.404;11.738;2023-02-02T05:27:46;96600.25;;;4.24;81.70
31357;BME280;60001;48.404;11.738;2023-02-02T05:29:17;96596.84;;;4.17;82.14
31357;BME280;60001;48.404;11.738;2023-02-02T05:30:49;96589.22;;;4.22;82.12
31357;BME280;60001;48.404;11.738;2023-02-02T05:32:22;96588.19;;;4.23;81.70
31357;BME280;60001;48.404;11.738;2023-02-02T05:33:53;96588.59;;;4.26;81.58
31357;BME280;60001;48.404;11.738;2023-02-02T05:35:24;96579.16;;;4.25;81.47
31357;BME280;60001;48.404;11.738;2023-02-02T05:36:56;96584.56;;;4.24;81.68
31357;BME280;60001;48.404;11.738;2023-02-02T05:38:29;96586.19;;;4.31;81.25
31357;BME280;60001;48.404;11.738;2023-02-02T05:40:01;96592.59;;;4.35;81.30
31357;BME280;60001;48.404;11.738;2023-02-02T05:41:33;96573.91;;;4.32;81.26
31357;BME280;60001;48.404;11.738;2023-02-02T05:43:05;96579.75;;;4.34;81.55
31357;BME280;60001;48.404;11.738;2023-02-02T05:44:37;96579.56;;;4.22;80.98
31357;BME280;60001;48.404;11.738;2023-02-02T05:46:08;96587.00;;;4.32;80.93
31357;BME280;60001;48.404;11.738;2023-02-02T05:47:39;96586.34;;;4.36;80.39
31357;BME280;60001;48.404;11.738;2023-02-02T05:49:12;96589.59;;;4.38;80.36
31357;BME280;60001;48.404;11.738;2023-02-02T05:50:53;96594.97;;;4.44;80.28
31357;BME280;60001;48.404;11.738;2023-02-02T05:52:26;96582.09;;;4.49;80.60
31357;BME280;60001;48.404;11.738;2023-02-02T05:53:59;96584.34;;;4.38;80.43
31357;BME280;60001;48.404;11.738;2023-02-02T05:55:31;96588.97;;;4.36;81.20
31357;BME280;60001;48.404;11.738;2023-02-02T05:57:03;96598.03;;;4.34;81.01
31357;BME280;60001;48.404;11.738;2023-02-02T05:58:34;96596.41;;;4.39;80.90
31357;BME280;60001;48.404;11.738;2023-02-02T06:00:08;96602.81;;;4.44;80.98
31357;BME280;60001;48.404;11.738;2023-02-02T06:01:40;96603.03;;;4.49;81.27
31357;BME280;60001;48.404;11.738;2023-02-02T06:03:12;96599.03;;;4.46;81.30
31357;BME280;60001;48.404;11.738;2023-02-02T06:04:44;96594.97;;;4.44;81.28
31357;BME280;60001;48.404;11.738;2023-02-02T06:06:16;96597.59;;;4.44;81.67
31357;BME280;60001;48.404;11.738;2023-02-02T06:07:48;96596.41;;;4.39;81.26
31357;BME280;60001;48.404;11.738;2023-02-02T06:09:21;96607.88;;;4.45;81.82
31357;BME280;60001;48.404;11.738;2023-02-02T06:10:54;96590.16;;;4.47;81.28
31357;BME280;60001;48.404;11.738;2023-02-02T06:12:26;96593.78;;;4.46;81.23
31357;BME280;60001;48.404;11.738;2023-02-02T06:13:58;96598.38;;;4.51;81.14
31357;BME280;60001;48.404;11.738;2023-02-02T06:15:30;96596.38;;;4.53;80.97
31357;BME280;60001;48.404;11.738;2023-02-02T06:17:02;96595.97;;;4.56;81.36
31357;BME280;60001;48.404;11.738;2023-02-02T06:18:34;96597.19;;;4.53;80.81
31357;BME280;60001;48.404;11.738;2023-02-02T06:20:07;96608.03;;;4.57;80.68
31357;BME280;60001;48.404;11.738;2023-02-02T06:21:39;96594.94;;;4.57;80.47
31357;BME280;60001;48.404;11.738;2023-02-02T06:23:11;96588.91;;;4.56;80.62
31357;BME280;60001;48.404;11.738;2023-02-02T06:24:44;96600.38;;;4.55;80.62
31357;BME280;60001;48.404;11.738;2023-02-02T06:26:17;96609.84;;;4.56;80.19
31357;BME280;60001;48.404;11.738;2023-02-02T06:27:54;96607.00;;;4.58;80.16
31357;BME280;60001;48.404;11.738;2023-02-02T06:29:26;96612.06;;;4.59;80.23
31357;BME280;60001;48.404;11.738;2023-02-02T06:31:02;96626.34;;;4.57;80.13
31357;BME280;60001;48.404;11.738;2023-02-02T06:32:35;96621.91;;;4.57;80.15
31357;BME280;60001;48.404;11.738;2023-02-02T06:34:10;96609.44;;;4.59;80.23
31357;BME280;60001;48.404;11.738;2023-02-02T06:35:44;96622.31;;;4.54;80.17
31357;BME280;60001;48.404;11.738;2023-02-02T06:37:16;96614.06;;;4.57;79.72
31357;BME280;60001;48.404;11.738;2023-02-02T06:38:48;96614.50;;;4.48;79.90
31357;BME280;60001;48.404;11.738;2023-02-02T06:40:22;96613.84;;;4.59;79.69
31357;BME280;60001;48.404;11.738;2023-02-02T06:41:54;96624.28;;;4.65;79.76
31357;BME280;60001;48.404;11.738;2023-02-02T06:43:25;96631.16;;;4.60;79.33
31357;BME280;60001;48.404;11.738;2023-02-02T06:44:57;96629.72;;;4.64;79.43
31357;BME280;60001;48.404;11.738;2023-02-02T06:46:29;96622.88;;;4.70;79.45
31357;BME280;60001;48.404;11.738;2023-02-02T06:48:01;96633.34;;;4.70;79.97
31357;BME280;60001;48.404;11.738;2023-02-02T06:49:33;96633.94;;;4.65;79.74
31357;BME280;60001;48.404;11.738;2023-02-02T06:51:06;96632.97;;;4.59;79.99
31357;BME280;60001;48.404;11.738;2023-02-02T06:52:38;96640.41;;;4.62;79.84
31357;BME280;60001;48.404;11.738;2023-02-02T06:54:09;96635.59;;;4.59;80.20
31357;BME280;60001;48.404;11.738;2023-02-02T06:55:42;96627.53;;;4.61;80.29
31357;BME280;60001;48.404;11.738;2023-02-02T06:57:14;96634.16;;;4.63;80.40
31357;BME280;60001;48.404;11.738;2023-02-02T06:58:46;96635.97;;;4.70;80.09
31357;BME280;60001;48.404;11.738;2023-02-02T07:00:18;96629.94;;;4.69;80.12
31357;BME280;60001;48.404;11.738;2023-02-02T07:01:50;96637.78;;;4.62;80.17
31357;BME280;60001;48.404;11.738;2023-02-02T07:03:22;96634.94;;;4.71;79.82
31357;BME280;60001;48.404;11.738;2023-02-02T07:04:54;96639.97;;;4.65;80.31
31357;BME280;60001;48.404;11.738;2023-02-02T07:06:27;96639.00;;;4.66;80.20
31357;BME280;60001;48.404;11.738;2023-02-02T07:07:59;96643.81;;;4.63;79.55
31357;BME280;60001;48.404;11.738;2023-02-02T07:09:31;96643.59;;;4.64;79.94
31357;BME280;60001;48.404;11.738;2023-02-02T07:11:05;96640.97;;;4.71;79.80
31357;BME280;60001;48.404;11.738;2023-02-02T07:12:37;96652.06;;;4.73;80.36
31357;BME280;60001;48.404;11.738;2023-02-02T07:14:10;96654.84;;;4.72;79.96
31357;BME280;60001;48.404;11.738;2023-02-02T07:15:42;96661.53;;;4.67;80.05
31357;BME280;60001;48.404;11.738;2023-02-02T07:17:15;96646.22;;;4.64;80.41
31357;BME280;60001;48.404;11.738;2023-02-02T07:18:47;96656.88;;;4.70;80.09
31357;BME280;60001;48.404;11.738;2023-02-02T07:20:19;96653.69;;;4.67;80.38
31357;BME280;60001;48.404;11.738;2023-02-02T07:21:51;96659.50;;;4.63;80.06
31357;BME280;60001;48.404;11.738;2023-02-02T07:23:22;96659.53;;;4.56;80.52
31357;BME280;60001;48.404;11.738;2023-02-02T07:24:54;96654.72;;;4.53;80.65
31357;BME280;60001;48.404;11.738;2023-02-02T07:26:28;96668.19;;;4.50;81.58
31357;BME280;60001;48.404;11.738;2023-02-02T07:27:59;96666.34;;;4.57;81.28
31357;BME280;60001;48.404;11.738;2023-02-02T07:29:31;96669.38;;;4.61;81.45
31357;BME280;60001;48.404;11.738;2023-02-02T07:31:12;96655.53;;;4.54;82.46
31357;BME280;60001;48.404;11.738;2023-02-02T07:32:46;96655.88;;;4.64;84.04
31357;BME280;60001;48.404;11.738;2023-02-02T07:34:18;96666.53;;;4.76;83.12
31357;BME280;60001;48.404;11.738;2023-02-02T07:35:50;96676.38;;;4.80;82.92
31357;BME280;60001;48.404;11.738;2023-02-02T07:37:21;96670.31;;;4.80;82.20
31357;BME280;60001;48.404;11.738;2023-02-02T07:38:53;96677.00;;;4.76;82.01
31357;BME280;60001;48.404;11.738;2023-02-02T07:40:26;96687.25;;;4.71;82.22
31357;BME280;60001;48.404;11.738;2023-02-02T07:41:59;96672.16;;;4.73;81.75
31357;BME280;60001;48.404;11.738;2023-02-02T07:43:31;96673.38;;;4.63;81.65
31357;BME280;60001;48.404;11.738;2023-02-02T07:45:04;96688.28;;;4.70;81.84
31357;BME280;60001;48.404;11.738;2023-02-02T07:46:36;96680.41;;;4.70;81.65
31357;BME280;60001;48.404;11.738;2023-02-02T07:48:08;96686.06;;;4.66;82.37
31357;BME280;60001;48.404;11.738;2023-02-02T07:49:40;96692.69;;;4.69;81.84
31357;BME280;60001;48.404;11.738;2023-02-02T07:51:13;96683.84;;;4.63;82.24
31357;BME280;60001;48.404;11.738;2023-02-02T07:52:45;96677.22;;;4.61;82.43
31357;BME280;60001;48.404;11.738;2023-02-02T07:54:17;96682.84;;;4.58;82.60
31357;BME280;60001;48.404;11.738;2023-02-02T07:55:49;96683.47;;;4.60;82.89
31357;BME280;60001;48.404;11.738;2023-02-02T07:57:22;96681.66;;;4.60;82.28
31357;BME280;60001;48.404;11.738;2023-02-02T07:58:55;96683.47;;;4.60;82.58
31357;BME280;60001;48.404;11.738;2023-02-02T08:00:27;96690.09;;;4.62;82.67
31357;BME280;60001;48.404;11.738;2023-02-02T08:01:59;96696.13;;;4.63;83.03
31357;BME280;60001;48.404;11.738;2023-02-02T08:03:31;96694.31;;;4.57;82.86
31357;BME280;60001;48.404;11.738;2023-02-02T08:05:04;96685.88;;;4.61;82.89
31357;BME280;60001;48.404;11.738;2023-02-02T08:06:38;96692.72;;;4.62;82.69
31357;BME280;60001;48.404;11.738;2023-02-02T08:08:10;96696.72;;;4.58;82.60
31357;BME280;60001;48.404;11.738;2023-02-02T08:09:45;96693.13;;;4.59;83.02
31357;BME280;60001;48.404;11.738;2023-02-02T08:11:19;96695.94;;;4.58;82.43
31357;BME280;60001;48.404;11.738;2023-02-02T08:12:52;96692.91;;;4.67;82.35
31357;BME280;60001;48.404;11.738;2023-02-02T08:14:24;96692.28;;;4.65;82.24
31357;BME280;60001;48.404;11.738;2023-02-02T08:15:56;96702.56;;;4.74;82.00
31357;BME280;60001;48.404;11.738;2023-02-02T08:17:28;96704.97;;;4.75;82.16
31357;BME280;60001;48.404;11.738;2023-02-02T08:19:02;96715.22;;;4.77;81.86